Time;durP1;ratioP1;P1;durP2;ratioP2;P2;SDS_P1;SDS_P2;PMS_P1;PMS_P2;Temp;Humidity;BMP_temperature;BMP_pressure;BME280_temperature;BME280_humidity;BME280_pressure;Samples;Min_cycle;Max_cycle;Signal;HPM_P1;HPM_P2
2022/03/18 12:31:16;;;;;;;32.05;23.58;;;;;;;;;;6196983;22;20031;-94
2022/03/18 12:33:41;;;;;;;35.40;24.00;;;;;;;;;;6163861;23;20017;-93
2022/03/18 12:36:08;;;;;;;32.63;24.27;;;;;;;;;;6174693;23;20442;-93
2022/03/18 12:38:33;;;;;;;35.05;23.90;;;;;;;;;;6162194;23;20083;-95
2022/03/18 12:40:59;;;;;;;34.33;25.52;;;;;;;;;;6162821;23;20021;-93
2022/03/18 12:43:27;;;;;;;36.13;22.80;;;;;;;;;;6160700;23;20495;-93
2022/03/18 17:59:24;;;;;;;21.00;13.30;;;;;;;;;;6214728;22;20366;-89
2022/03/18 18:01:50;;;;;;;21.42;13.80;;;;;;;;;;6218784;23;20040;-89
2022/03/18 18:04:16;;;;;;;18.95;13.98;;;;;;;;;;6218384;23;20076;-89
2022/03/18 18:06:42;;;;;;;23.35;15.38;;;;;;;;;;6218259;23;20032;-89
2022/03/18 18:09:11;;;;;;;19.52;13.68;;;;;;;;;;6191944;23;20008;-89
2022/03/18 18:11:40;;;;;;;19.52;14.10;;;;;;;;;;6218486;23;20009;-90
2022/03/18 18:14:08;;;;;;;18.63;14.20;;;;;;;;;;6191942;23;20005;-89
2022/03/18 18:16:35;;;;;;;22.20;13.80;;;;;;;;;;6218358;23;20431;-92
2022/03/18 18:21:57;;;;;;;21.38;14.38;;;;;;;;;;6218374;23;20012;-91
2022/03/18 18:24:24;;;;;;;19.63;14.07;;;;;;;;;;6218222;23;20024;-91
2022/03/18 18:26:50;;;;;;;20.60;14.48;;;;;;;;;;6217780;23;20470;-91
2022/03/18 18:29:15;;;;;;;19.67;13.80;;;;;;;;;;6191774;23;20011;-90
2022/03/18 18:31:41;;;;;;;22.17;13.75;;;;;;;;;;6191348;23;20069;-90
2022/03/18 18:34:06;;;;;;;23.20;14.10;;;;;;;;;;6191240;23;20009;-90
2022/03/18 18:36:32;;;;;;;24.77;14.93;;;;;;;;;;6217362;23;20019;-89
2022/03/18 18:38:58;;;;;;;21.25;15.02;;;;;;;;;;6217572;23;20084;-86
2022/03/18 18:41:24;;;;;;;21.67;14.85;;;;;;;;;;6191158;23;20005;-90
2022/03/18 18:43:52;;;;;;;21.67;14.95;;;;;;;;;;6217125;23;20058;-90
2022/03/18 18:46:18;;;;;;;21.58;15.13;;;;;;;;;;6217624;23;20420;-90
2022/03/18 18:48:44;;;;;;;23.83;15.05;;;;;;;;;;6217248;23;20000;-89
2022/03/18 18:51:12;;;;;;;24.20;16.15;;;;;;;;;;6190976;23;20005;-90
2022/03/18 18:53:38;;;;;;;100.20;35.40;;;;;;;;;;6191076;23;20092;-89
2022/03/18 18:56:07;;;;;;;68.25;28.30;;;;;;;;;;6217065;23;20031;-91
2022/03/18 18:58:33;;;;;;;21.20;15.65;;;;;;;;;;6190957;23;20015;-90
2022/03/18 19:00:59;;;;;;;18.85;14.18;;;;;;;;;;6192798;23;20013;-89
2022/03/18 19:03:25;;;;;;;20.27;14.82;;;;;;;;;;6186979;23;20032;-87
2022/03/18 19:05:51;;;;;;;22.02;14.73;;;;;;;;;;6160506;23;20434;-89
2022/03/18 19:08:17;;;;;;;18.73;14.82;;;;;;;;;;6161029;23;20001;-88
2022/03/18 19:10:47;;;;;;;20.40;14.38;;;;;;;;;;6160524;23;20028;-88
2022/03/18 19:13:13;;;;;;;23.02;15.27;;;;;;;;;;6187264;23;20028;-91
2022/03/18 19:15:40;;;;;;;19.60;14.20;;;;;;;;;;6160705;23;20063;-91
2022/03/18 19:18:08;;;;;;;23.30;16.48;;;;;;;;;;6161032;23;20009;-90
2022/03/18 19:20:34;;;;;;;18.92;14.73;;;;;;;;;;6187484;23;20000;-89
2022/03/18 19:23:00;;;;;;;20.38;14.88;;;;;;;;;;6161370;23;20009;-90
2022/03/18 19:25:27;;;;;;;20.33;15.07;;;;;;;;;;6161334;23;20389;-93
2022/03/18 19:27:53;;;;;;;44.28;26.00;;;;;;;;;;6162840;23;20045;-93
2022/03/18 19:30:18;;;;;;;21.73;14.05;;;;;;;;;;6161226;23;20009;-92
2022/03/18 19:32:44;;;;;;;18.23;14.70;;;;;;;;;;6161264;23;20016;-93
2022/03/18 19:35:11;;;;;;;22.65;14.77;;;;;;;;;;6161401;23;20005;-92
2022/03/18 19:37:37;;;;;;;24.38;16.70;;;;;;;;;;6160982;23;20012;-88
2022/03/18 19:40:09;;;;;;;22.50;16.40;;;;;;;;;;6160659;23;20032;-93
2022/03/18 19:42:35;;;;;;;21.58;16.80;;;;;;;;;;6161706;23;20013;-91
2022/03/18 19:45:02;;;;;;;22.90;16.00;;;;;;;;;;6161093;23;20016;-93
2022/03/18 19:47:29;;;;;;;21.02;14.80;;;;;;;;;;6161160;23;20329;-94
2022/03/18 19:49:54;;;;;;;22.60;16.38;;;;;;;;;;6161251;23;20013;-91
2022/03/18 19:52:22;;;;;;;24.17;16.88;;;;;;;;;;6161216;23;20032;-90
2022/03/18 19:54:49;;;;;;;17.70;12.77;;;;;;;;;;6161243;23;20012;-92
2022/03/18 20:02:44;;;;;;;22.52;14.82;;;;;;;;;;6186499;23;20015;-89
2022/03/18 20:05:13;;;;;;;21.70;14.50;;;;;;;;;;6186909;23;20426;-91
2022/03/18 20:07:42;;;;;;;23.55;14.85;;;;;;;;;;6159982;23;20005;-89
2022/03/18 20:10:09;;;;;;;23.17;16.15;;;;;;;;;;6186347;23;20005;-88
2022/03/18 20:12:39;;;;;;;30.35;19.48;;;;;;;;;;6159936;23;20040;-89
2022/03/18 20:15:13;;;;;;;27.10;17.90;;;;;;;;;;6159964;23;20352;-88
2022/03/18 20:17:42;;;;;;;29.30;20.67;;;;;;;;;;6159796;23;20413;-87
2022/03/18 20:20:09;;;;;;;38.35;27.55;;;;;;;;;;6186111;23;20008;-87
2022/03/18 20:22:34;;;;;;;27.20;19.45;;;;;;;;;;6159702;23;20012;-89
2022/03/18 20:25:00;;;;;;;30.00;19.85;;;;;;;;;;6160127;23;20013;-90
2022/03/18 20:27:25;;;;;;;23.55;15.95;;;;;;;;;;6160177;23;20421;-90
2022/03/18 20:29:51;;;;;;;23.05;16.60;;;;;;;;;;6160434;23;20009;-90
2022/03/18 20:32:19;;;;;;;20.00;15.02;;;;;;;;;;6160444;23;20143;-89
2022/03/18 20:34:45;;;;;;;20.02;14.63;;;;;;;;;;6160313;23;20028;-89
2022/03/18 20:37:11;;;;;;;19.75;13.27;;;;;;;;;;6159768;23;20420;-88
2022/03/18 20:39:37;;;;;;;18.58;12.98;;;;;;;;;;6159937;23;20015;-88
2022/03/18 20:42:03;;;;;;;19.20;14.10;;;;;;;;;;6160344;23;20009;-90
2022/03/18 20:44:28;;;;;;;21.17;12.85;;;;;;;;;;6160315;23;19997;-89
2022/03/18 20:46:54;;;;;;;17.50;13.48;;;;;;;;;;6186387;23;20012;-90
2022/03/18 20:49:19;;;;;;;20.73;15.10;;;;;;;;;;6160071;23;20016;-89
2022/03/18 20:51:45;;;;;;;19.85;13.48;;;;;;;;;;6160163;23;20001;-90
2022/03/18 20:54:12;;;;;;;22.08;14.25;;;;;;;;;;6159967;23;20428;-89
2022/03/18 20:56:37;;;;;;;19.38;13.93;;;;;;;;;;6159853;23;20059;-89
2022/03/18 20:59:04;;;;;;;20.70;13.98;;;;;;;;;;6159643;23;20076;-89
2022/03/18 21:01:30;;;;;;;24.15;14.32;;;;;;;;;;6159613;23;20017;-89
2022/03/18 21:03:55;;;;;;;21.45;14.35;;;;;;;;;;6160075;23;20075;-89
2022/03/18 21:06:22;;;;;;;22.33;13.63;;;;;;;;;;6159788;23;20001;-89
2022/03/18 21:08:48;;;;;;;21.83;14.23;;;;;;;;;;6161630;23;20055;-89
2022/03/18 21:11:14;;;;;;;21.20;13.90;;;;;;;;;;6161870;23;19997;-88
2022/03/18 21:13:40;;;;;;;20.35;13.80;;;;;;;;;;6161668;23;20096;-89
2022/03/18 21:16:06;;;;;;;20.00;14.48;;;;;;;;;;6161677;23;20047;-88
2022/03/18 21:18:32;;;;;;;23.00;15.45;;;;;;;;;;6187886;23;20012;-88
2022/03/18 21:20:57;;;;;;;22.55;15.90;;;;;;;;;;6161772;23;20013;-90
2022/03/18 21:23:23;;;;;;;18.83;13.93;;;;;;;;;;6187923;23;20306;-89
2022/03/18 21:31:21;;;;;;;19.75;13.68;;;;;;;;;;6188709;23;20028;-89
2022/03/18 21:33:47;;;;;;;20.23;13.90;;;;;;;;;;6161593;23;20420;-89
2022/03/18 21:36:13;;;;;;;19.95;13.00;;;;;;;;;;6161155;23;20036;-89
2022/03/18 21:38:39;;;;;;;20.08;13.90;;;;;;;;;;6161560;23;20012;-90
2022/03/18 21:41:05;;;;;;;20.13;13.77;;;;;;;;;;6161178;23;20487;-90
2022/03/18 21:43:31;;;;;;;19.98;15.25;;;;;;;;;;6161572;23;20009;-89
2022/03/18 21:45:57;;;;;;;20.45;14.23;;;;;;;;;;6161262;23;20036;-89
2022/03/18 21:48:22;;;;;;;20.50;14.05;;;;;;;;;;6161399;23;20012;-89
2022/03/18 21:50:48;;;;;;;21.25;13.75;;;;;;;;;;6161696;23;20009;-89
2022/03/18 21:53:14;;;;;;;20.35;14.73;;;;;;;;;;6185736;23;20019;-89
2022/03/18 21:55:39;;;;;;;20.27;13.65;;;;;;;;;;6161150;23;20423;-90
2022/03/18 21:58:06;;;;;;;21.67;13.93;;;;;;;;;;6161173;23;20024;-88
2022/03/18 22:00:32;;;;;;;21.25;13.63;;;;;;;;;;6161432;23;20024;-88
2022/03/18 22:02:59;;;;;;;24.42;15.05;;;;;;;;;;6161018;23;20009;-89
2022/03/18 22:05:25;;;;;;;20.17;14.18;;;;;;;;;;6161097;23;20419;-88
2022/03/18 22:07:52;;;;;;;20.63;14.25;;;;;;;;;;6161257;23;20008;-89
2022/03/18 22:10:19;;;;;;;19.00;13.02;;;;;;;;;;6161203;23;20413;-89
2022/03/18 22:12:45;;;;;;;18.27;12.80;;;;;;;;;;6161059;23;20005;-88
2022/03/18 22:15:13;;;;;;;18.58;12.82;;;;;;;;;;6187456;23;20008;-89
2022/03/18 22:17:39;;;;;;;20.50;13.07;;;;;;;;;;6161046;23;20000;-88
2022/03/18 22:20:06;;;;;;;21.85;14.02;;;;;;;;;;6160444;23;20032;-88
2022/03/18 22:22:36;;;;;;;16.90;13.23;;;;;;;;;;6160909;23;20009;-88
2022/03/18 22:25:03;;;;;;;20.20;12.93;;;;;;;;;;6161030;23;20009;-88
2022/03/18 22:27:28;;;;;;;24.35;13.63;;;;;;;;;;6187385;23;20051;-88
2022/03/18 22:29:54;;;;;;;19.65;13.98;;;;;;;;;;6160806;23;20009;-88
2022/03/18 22:32:19;;;;;;;22.15;14.82;;;;;;;;;;6160882;23;20013;-88
2022/03/18 22:34:45;;;;;;;18.27;14.18;;;;;;;;;;6187353;23;20005;-88
2022/03/18 22:37:10;;;;;;;19.85;13.70;;;;;;;;;;6187560;23;20500;-88
2022/03/18 22:39:36;;;;;;;20.15;14.55;;;;;;;;;;6160993;23;20029;-88
2022/03/18 22:42:01;;;;;;;20.02;14.55;;;;;;;;;;6185352;23;20063;-88
2022/03/18 22:44:26;;;;;;;20.92;14.93;;;;;;;;;;6160672;23;20084;-88
2022/03/18 22:46:52;;;;;;;23.30;15.60;;;;;;;;;;6160460;23;20059;-87
2022/03/18 22:49:17;;;;;;;19.63;13.98;;;;;;;;;;6160810;23;20016;-86
2022/03/18 22:51:43;;;;;;;23.02;14.65;;;;;;;;;;6186342;23;20005;-88
2022/03/18 22:54:09;;;;;;;22.85;14.18;;;;;;;;;;6186698;23;20341;-89
2022/03/18 22:56:34;;;;;;;19.25;13.25;;;;;;;;;;6160739;23;20005;-88
2022/03/18 22:59:00;;;;;;;18.98;13.15;;;;;;;;;;6160922;23;20001;-88
2022/03/18 23:01:26;;;;;;;21.15;13.75;;;;;;;;;;6186539;23;20076;-88
2022/03/18 23:03:52;;;;;;;18.33;13.20;;;;;;;;;;6187268;23;20017;-88
2022/03/18 23:06:17;;;;;;;19.17;13.93;;;;;;;;;;6160375;23;19997;-89
2022/03/18 23:08:42;;;;;;;23.88;16.67;;;;;;;;;;6160615;23;20005;-88
2022/03/18 23:13:52;;;;;;;30.52;19.38;;;;;;;;;;6186825;23;20044;-88
2022/03/18 23:16:28;;;;;;;29.45;18.40;;;;;;;;;;6160427;23;20433;-88
2022/03/18 23:18:53;;;;;;;27.25;18.38;;;;;;;;;;6187339;23;20008;-88
2022/03/18 23:21:19;;;;;;;25.58;16.83;;;;;;;;;;6160733;23;20009;-89
2022/03/18 23:23:44;;;;;;;27.35;17.02;;;;;;;;;;6160724;23;20380;-89
2022/03/18 23:26:10;;;;;;;26.40;16.60;;;;;;;;;;6160716;23;20005;-89
2022/03/18 23:28:35;;;;;;;24.15;16.67;;;;;;;;;;6160824;23;20043;-89
2022/03/18 23:31:01;;;;;;;28.05;16.20;;;;;;;;;;6186716;23;20008;-89
2022/03/18 23:33:26;;;;;;;21.33;12.85;;;;;;;;;;6186843;23;20001;-89
2022/03/18 23:35:52;;;;;;;20.02;14.35;;;;;;;;;;6160271;23;20028;-88
2022/03/18 23:38:18;;;;;;;31.83;19.30;;;;;;;;;;6160594;23;20015;-88
2022/03/18 23:40:44;;;;;;;27.48;16.42;;;;;;;;;;6186844;23;20062;-91
